Frankfort Center, New York
Current Conditions -  °F | °C
As of 4:53 AM on Thursday 25 Dec 2014 (Local Time) from KRME Reporting Station
Overcast Overcast  
Wind Chill: 43°   Ceiling: 6500
Heat Index: 49°   Visibility: 10mi
Dew Point: 34°   Wind: 17mph
Humidity: 56%   Direction: 260°W
Pressure: 29.51"   Gusts: 37mph
Location:  43.0518°N, 75.1167°W
Report Text: KRME 250953Z AUTO 26015G32KT 10SM FEW042 OVC065 09/01 A2951 RMK AO2 PK WND 28037/0931 RAE00B19E31 SLP993 P0000 T00940011
Loading
Personal Weather Stations






























Interactive Weather Map New forecast layout! Learn more

10-Day Weather Forecast

Advertisements
Track Severe Weather on mobile